sensor_id;sensor_type;location;lat;lon;timestamp;temperature;humidity
13598;DHT22;38563;54.258;12.574;2024-01-15T00:00:53;1.10;99.90
13598;DHT22;38563;54.258;12.574;2024-01-15T00:03:20;1.10;99.90
13598;DHT22;38563;54.258;12.574;2024-01-15T00:05:47;1.00;99.90
13598;DHT22;38563;54.258;12.574;2024-01-15T00:08:14;1.00;99.90
13598;DHT22;38563;54.258;12.574;2024-01-15T00:10:41;0.90;99.90
13598;DHT22;38563;54.258;12.574;2024-01-15T00:13:08;0.90;99.90
13598;DHT22;38563;54.258;12.574;2024-01-15T00:15:35;0.80;99.90
13598;DHT22;38563;54.258;12.574;2024-01-15T00:18:03;0.80;99.90
13598;DHT22;38563;54.258;12.574;2024-01-15T00:20:30;0.80;99.90
13598;DHT22;38563;54.258;12.574;2024-01-15T00:22:56;0.80;99.90
13598;DHT22;38563;54.258;12.574;2024-01-15T00:25:23;0.80;99.90
13598;DHT22;38563;54.258;12.574;2024-01-15T00:27:50;0.90;99.90
13598;DHT22;38563;54.258;12.574;2024-01-15T00:30:17;0.90;99.90
13598;DHT22;38563;54.258;12.574;2024-01-15T00:32:43;0.90;99.90
13598;DHT22;38563;54.258;12.574;2024-01-15T00:35:12;0.90;99.90
13598;DHT22;38563;54.258;12.574;2024-01-15T00:37:39;0.80;99.90
13598;DHT22;38563;54.258;12.574;2024-01-15T00:40:06;0.80;99.90
13598;DHT22;38563;54.258;12.574;2024-01-15T00:42:34;0.90;99.90
13598;DHT22;38563;54.258;12.574;2024-01-15T00:45:01;0.90;99.90
13598;DHT22;38563;54.258;12.574;2024-01-15T00:47:28;0.90;99.90
13598;DHT22;38563;54.258;12.574;2024-01-15T00:49:54;0.90;99.90
13598;DHT22;38563;54.258;12.574;2024-01-15T00:52:22;0.90;99.90
13598;DHT22;38563;54.258;12.574;2024-01-15T00:54:49;0.90;99.90
13598;DHT22;38563;54.258;12.574;2024-01-15T00:57:16;1.00;99.90
13598;DHT22;38563;54.258;12.574;2024-01-15T00:59:44;1.10;99.90
13598;DHT22;38563;54.258;12.574;2024-01-15T01:02:11;1.10;99.90
13598;DHT22;38563;54.258;12.574;2024-01-15T01:04:38;1.20;99.90
13598;DHT22;38563;54.258;12.574;2024-01-15T01:07:04;1.20;99.90
13598;DHT22;38563;54.258;12.574;2024-01-15T01:09:32;1.20;99.90
13598;DHT22;38563;54.258;12.574;2024-01-15T01:11:59;1.30;99.90
13598;DHT22;38563;54.258;12.574;2024-01-15T01:14:26;1.30;99.90
13598;DHT22;38563;54.258;12.574;2024-01-15T01:16:52;1.30;99.90
13598;DHT22;38563;54.258;12.574;2024-01-15T01:19:19;1.40;99.90
13598;DHT22;38563;54.258;12.574;2024-01-15T01:21:46;1.40;99.90
13598;DHT22;38563;54.258;12.574;2024-01-15T01:24:12;1.40;99.90
13598;DHT22;38563;54.258;12.574;2024-01-15T01:26:40;1.40;99.90
13598;DHT22;38563;54.258;12.574;2024-01-15T01:29:07;1.40;99.90
13598;DHT22;38563;54.258;12.574;2024-01-15T01:31:34;1.40;99.90
13598;DHT22;38563;54.258;12.574;2024-01-15T01:34:00;1.30;99.90
13598;DHT22;38563;54.258;12.574;2024-01-15T01:36:27;1.30;99.90
13598;DHT22;38563;54.258;12.574;2024-01-15T01:38:54;1.30;99.90
13598;DHT22;38563;54.258;12.574;2024-01-15T01:41:20;1.30;99.90
13598;DHT22;38563;54.258;12.574;2024-01-15T01:43:51;1.30;99.90
13598;DHT22;38563;54.258;12.574;2024-01-15T01:46:17;1.30;99.90
13598;DHT22;38563;54.258;12.574;2024-01-15T01:48:44;1.40;99.90
13598;DHT22;38563;54.258;12.574;2024-01-15T01:51:11;1.40;99.90
13598;DHT22;38563;54.258;12.574;2024-01-15T01:53:38;1.40;99.90
13598;DHT22;38563;54.258;12.574;2024-01-15T01:56:06;1.40;99.90
13598;DHT22;38563;54.258;12.574;2024-01-15T01:58:33;1.40;99.90
13598;DHT22;38563;54.258;12.574;2024-01-15T02:01:01;1.50;99.90
13598;DHT22;38563;54.258;12.574;2024-01-15T02:03:30;1.60;99.90
13598;DHT22;38563;54.258;12.574;2024-01-15T02:05:57;1.60;99.90
13598;DHT22;38563;54.258;12.574;2024-01-15T02:08:25;1.60;99.90
13598;DHT22;38563;54.258;12.574;2024-01-15T02:10:52;1.60;99.90
13598;DHT22;38563;54.258;12.574;2024-01-15T02:13:20;1.60;99.90
13598;DHT22;38563;54.258;12.574;2024-01-15T02:15:46;1.50;99.90
13598;DHT22;38563;54.258;12.574;2024-01-15T02:18:14;1.50;99.90
13598;DHT22;38563;54.258;12.574;2024-01-15T02:20:41;1.50;99.90
13598;DHT22;38563;54.258;12.574;2024-01-15T02:23:12;1.50;99.90
13598;DHT22;38563;54.258;12.574;2024-01-15T02:25:40;1.40;99.90
13598;DHT22;38563;54.258;12.574;2024-01-15T02:28:09;1.40;99.90
13598;DHT22;38563;54.258;12.574;2024-01-15T02:30:37;1.40;99.90
13598;DHT22;38563;54.258;12.574;2024-01-15T02:33:05;1.40;99.90
13598;DHT22;38563;54.258;12.574;2024-01-15T02:35:32;1.50;99.90
13598;DHT22;38563;54.258;12.574;2024-01-15T02:37:58;1.60;99.90
13598;DHT22;38563;54.258;12.574;2024-01-15T02:40:26;1.70;99.90
13598;DHT22;38563;54.258;12.574;2024-01-15T02:42:53;1.70;99.90
13598;DHT22;38563;54.258;12.574;2024-01-15T02:45:20;1.70;99.90
13598;DHT22;38563;54.258;12.574;2024-01-15T02:47:47;1.70;99.90
13598;DHT22;38563;54.258;12.574;2024-01-15T02:50:14;1.80;99.90
13598;DHT22;38563;54.258;12.574;2024-01-15T02:52:41;1.80;99.90
13598;DHT22;38563;54.258;12.574;2024-01-15T02:55:08;1.90;99.90
13598;DHT22;38563;54.258;12.574;2024-01-15T02:57:36;1.90;99.90
13598;DHT22;38563;54.258;12.574;2024-01-15T03:00:04;1.90;99.90
13598;DHT22;38563;54.258;12.574;2024-01-15T03:02:31;1.90;99.90
13598;DHT22;38563;54.258;12.574;2024-01-15T03:04:57;2.00;99.90
13598;DHT22;38563;54.258;12.574;2024-01-15T03:07:24;2.00;99.90
13598;DHT22;38563;54.258;12.574;2024-01-15T03:09:51;2.00;99.90
13598;DHT22;38563;54.258;12.574;2024-01-15T03:12:17;2.00;99.90
13598;DHT22;38563;54.258;12.574;2024-01-15T03:14:46;1.90;99.90
13598;DHT22;38563;54.258;12.574;2024-01-15T03:17:12;1.90;99.90
13598;DHT22;38563;54.258;12.574;2024-01-15T03:19:39;1.90;99.90
13598;DHT22;38563;54.258;12.574;2024-01-15T03:22:06;2.00;99.90
13598;DHT22;38563;54.258;12.574;2024-01-15T03:24:34;2.10;99.90
13598;DHT22;38563;54.258;12.574;2024-01-15T03:27:01;2.10;99.90
13598;DHT22;38563;54.258;12.574;2024-01-15T03:29:28;2.10;99.90
13598;DHT22;38563;54.258;12.574;2024-01-15T03:31:56;2.10;99.90
13598;DHT22;38563;54.258;12.574;2024-01-15T03:34:23;2.10;99.90
13598;DHT22;38563;54.258;12.574;2024-01-15T03:36:50;2.00;99.90
13598;DHT22;38563;54.258;12.574;2024-01-15T03:39:16;2.00;99.90
13598;DHT22;38563;54.258;12.574;2024-01-15T03:41:43;2.00;99.90
13598;DHT22;38563;54.258;12.574;2024-01-15T03:44:10;2.00;99.90
13598;DHT22;38563;54.258;12.574;2024-01-15T03:46:37;1.90;99.90
13598;DHT22;38563;54.258;12.574;2024-01-15T03:49:05;1.90;99.90
13598;DHT22;38563;54.258;12.574;2024-01-15T03:51:32;2.00;99.90
13598;DHT22;38563;54.258;12.574;2024-01-15T03:53:58;2.00;99.90
13598;DHT22;38563;54.258;12.574;2024-01-15T03:56:25;2.10;99.90
13598;DHT22;38563;54.258;12.574;2024-01-15T03:58:52;2.10;99.90
13598;DHT22;38563;54.258;12.574;2024-01-15T04:01:19;2.10;99.90
13598;DHT22;38563;54.258;12.574;2024-01-15T04:03:45;2.00;99.90
13598;DHT22;38563;54.258;12.574;2024-01-15T04:06:13;1.90;99.90
13598;DHT22;38563;54.258;12.574;2024-01-15T04:08:40;1.90;99.90
13598;DHT22;38563;54.258;12.574;2024-01-15T04:11:07;1.90;99.90
13598;DHT22;38563;54.258;12.574;2024-01-15T04:13:34;1.80;99.90
13598;DHT22;38563;54.258;12.574;2024-01-15T04:16:01;1.80;99.90
13598;DHT22;38563;54.258;12.574;2024-01-15T04:18:28;1.90;99.90
13598;DHT22;38563;54.258;12.574;2024-01-15T04:20:55;1.80;99.90
13598;DHT22;38563;54.258;12.574;2024-01-15T04:23:23;1.80;99.90
13598;DHT22;38563;54.258;12.574;2024-01-15T04:25:50;1.80;99.90
13598;DHT22;38563;54.258;12.574;2024-01-15T04:28:16;1.90;99.90
13598;DHT22;38563;54.258;12.574;2024-01-15T04:30:43;1.90;99.90
13598;DHT22;38563;54.258;12.574;2024-01-15T04:33:10;2.00;99.90
13598;DHT22;38563;54.258;12.574;2024-01-15T04:35:37;2.10;99.90
13598;DHT22;38563;54.258;12.574;2024-01-15T04:38:04;2.10;99.90
13598;DHT22;38563;54.258;12.574;2024-01-15T04:40:32;2.10;99.90
13598;DHT22;38563;54.258;12.574;2024-01-15T04:42:59;2.00;99.90
13598;DHT22;38563;54.258;12.574;2024-01-15T04:45:25;2.00;99.90
13598;DHT22;38563;54.258;12.574;2024-01-15T04:47:54;2.00;99.90
13598;DHT22;38563;54.258;12.574;2024-01-15T04:50:22;2.00;99.90
13598;DHT22;38563;54.258;12.574;2024-01-15T04:52:49;2.00;99.90
13598;DHT22;38563;54.258;12.574;2024-01-15T04:55:16;2.00;99.90
13598;DHT22;38563;54.258;12.574;2024-01-15T04:57:44;2.00;99.90
13598;DHT22;38563;54.258;12.574;2024-01-15T05:00:12;2.00;99.90
13598;DHT22;38563;54.258;12.574;2024-01-15T05:02:40;2.00;99.90
13598;DHT22;38563;54.258;12.574;2024-01-15T05:05:07;2.00;99.90
13598;DHT22;38563;54.258;12.574;2024-01-15T05:07:33;1.80;99.90
13598;DHT22;38563;54.258;12.574;2024-01-15T05:10:00;1.80;99.90
13598;DHT22;38563;54.258;12.574;2024-01-15T05:12:27;1.70;99.90
13598;DHT22;38563;54.258;12.574;2024-01-15T05:14:55;1.70;99.90
13598;DHT22;38563;54.258;12.574;2024-01-15T05:17:21;1.70;99.90
13598;DHT22;38563;54.258;12.574;2024-01-15T05:19:48;1.80;99.90
13598;DHT22;38563;54.258;12.574;2024-01-15T05:22:15;1.90;99.90
13598;DHT22;38563;54.258;12.574;2024-01-15T05:24:42;1.90;99.90
13598;DHT22;38563;54.258;12.574;2024-01-15T05:27:09;1.90;99.90
13598;DHT22;38563;54.258;12.574;2024-01-15T05:29:34;1.90;99.90
13598;DHT22;38563;54.258;12.574;2024-01-15T05:32:03;1.90;99.90
13598;DHT22;38563;54.258;12.574;2024-01-15T05:34:29;1.90;99.90
13598;DHT22;38563;54.258;12.574;2024-01-15T05:36:56;1.90;99.90
13598;DHT22;38563;54.258;12.574;2024-01-15T05:39:23;1.90;99.90
13598;DHT22;38563;54.258;12.574;2024-01-15T05:41:50;1.90;99.90
13598;DHT22;38563;54.258;12.574;2024-01-15T05:44:16;1.90;99.90
13598;DHT22;38563;54.258;12.574;2024-01-15T05:46:43;1.90;99.90
13598;DHT22;38563;54.258;12.574;2024-01-15T05:49:11;1.80;99.90
13598;DHT22;38563;54.258;12.574;2024-01-15T05:51:38;1.70;99.90
13598;DHT22;38563;54.258;12.574;2024-01-15T05:54:04;1.60;99.90
13598;DHT22;38563;54.258;12.574;2024-01-15T05:56:31;1.50;99.90
13598;DHT22;38563;54.258;12.574;2024-01-15T05:58:58;1.50;99.90
13598;DHT22;38563;54.258;12.574;2024-01-15T06:01:25;1.60;99.90
13598;DHT22;38563;54.258;12.574;2024-01-15T06:03:52;1.60;99.90
13598;DHT22;38563;54.258;12.574;2024-01-15T06:06:20;1.60;99.90
13598;DHT22;38563;54.258;12.574;2024-01-15T06:08:47;1.60;99.90
13598;DHT22;38563;54.258;12.574;2024-01-15T06:11:13;1.70;99.90
13598;DHT22;38563;54.258;12.574;2024-01-15T06:13:40;1.70;99.90
13598;DHT22;38563;54.258;12.574;2024-01-15T06:16:13;1.80;99.90
13598;DHT22;38563;54.258;12.574;2024-01-15T06:18:40;1.70;99.90
13598;DHT22;38563;54.258;12.574;2024-01-15T06:21:07;1.70;99.90
13598;DHT22;38563;54.258;12.574;2024-01-15T06:23:37;1.70;99.90
13598;DHT22;38563;54.258;12.574;2024-01-15T06:26:04;1.70;99.90
13598;DHT22;38563;54.258;12.574;2024-01-15T06:28:31;1.70;99.90
13598;DHT22;38563;54.258;12.574;2024-01-15T06:30:57;1.70;99.90
13598;DHT22;38563;54.258;12.574;2024-01-15T06:33:24;1.70;99.90
13598;DHT22;38563;54.258;12.574;2024-01-15T06:35:51;1.60;99.90
13598;DHT22;38563;54.258;12.574;2024-01-15T06:38:18;1.60;99.90
13598;DHT22;38563;54.258;12.574;2024-01-15T06:40:46;1.50;99.90
13598;DHT22;38563;54.258;12.574;2024-01-15T06:43:13;1.50;99.90
13598;DHT22;38563;54.258;12.574;2024-01-15T06:45:40;1.50;99.90
13598;DHT22;38563;54.258;12.574;2024-01-15T06:48:09;1.40;99.90
13598;DHT22;38563;54.258;12.574;2024-01-15T06:50:38;1.10;99.90
13598;DHT22;38563;54.258;12.574;2024-01-15T06:53:05;1.00;99.90
13598;DHT22;38563;54.258;12.574;2024-01-15T06:55:31;0.90;99.90
13598;DHT22;38563;54.258;12.574;2024-01-15T06:57:59;1.00;99.90
13598;DHT22;38563;54.258;12.574;2024-01-15T07:00:26;1.10;99.90
13598;DHT22;38563;54.258;12.574;2024-01-15T07:02:54;1.10;99.90
13598;DHT22;38563;54.258;12.574;2024-01-15T07:05:21;1.10;99.90
13598;DHT22;38563;54.258;12.574;2024-01-15T07:07:48;1.10;99.90
13598;DHT22;38563;54.258;12.574;2024-01-15T07:10:15;1.00;99.90
13598;DHT22;38563;54.258;12.574;2024-01-15T07:12:42;1.00;99.90
13598;DHT22;38563;54.258;12.574;2024-01-15T07:15:11;0.90;99.90
13598;DHT22;38563;54.258;12.574;2024-01-15T07:17:37;0.90;99.90
13598;DHT22;38563;54.258;12.574;2024-01-15T07:20:06;0.90;99.90
13598;DHT22;38563;54.258;12.574;2024-01-15T07:22:35;0.90;99.90
13598;DHT22;38563;54.258;12.574;2024-01-15T07:25:02;0.90;99.90
13598;DHT22;38563;54.258;12.574;2024-01-15T07:27:30;0.80;99.90
13598;DHT22;38563;54.258;12.574;2024-01-15T07:29:57;0.80;99.90
13598;DHT22;38563;54.258;12.574;2024-01-15T07:32:25;0.90;99.90
13598;DHT22;38563;54.258;12.574;2024-01-15T07:34:51;0.90;99.90
13598;DHT22;38563;54.258;12.574;2024-01-15T07:37:18;0.90;99.90
13598;DHT22;38563;54.258;12.574;2024-01-15T07:39:45;0.90;99.90
13598;DHT22;38563;54.258;12.574;2024-01-15T07:42:11;0.90;99.90
13598;DHT22;38563;54.258;12.574;2024-01-15T07:44:38;0.90;99.90
13598;DHT22;38563;54.258;12.574;2024-01-15T07:47:05;0.90;99.90
13598;DHT22;38563;54.258;12.574;2024-01-15T07:49:35;0.80;99.90
13598;DHT22;38563;54.258;12.574;2024-01-15T07:52:02;0.80;99.90
13598;DHT22;38563;54.258;12.574;2024-01-15T07:54:30;0.80;99.90
13598;DHT22;38563;54.258;12.574;2024-01-15T07:56:57;0.80;99.90
13598;DHT22;38563;54.258;12.574;2024-01-15T07:59:24;0.80;99.90
13598;DHT22;38563;54.258;12.574;2024-01-15T08:01:51;0.80;99.90
13598;DHT22;38563;54.258;12.574;2024-01-15T08:04:18;0.80;99.90
13598;DHT22;38563;54.258;12.574;2024-01-15T08:06:46;0.80;99.90
13598;DHT22;38563;54.258;12.574;2024-01-15T08:09:13;0.80;99.90
13598;DHT22;38563;54.258;12.574;2024-01-15T08:11:40;0.80;99.90
13598;DHT22;38563;54.258;12.574;2024-01-15T08:14:07;0.80;99.90
13598;DHT22;38563;54.258;12.574;2024-01-15T08:16:35;0.80;99.90
13598;DHT22;38563;54.258;12.574;2024-01-15T08:19:02;0.80;99.90
13598;DHT22;38563;54.258;12.574;2024-01-15T08:21:28;0.80;99.90
13598;DHT22;38563;54.258;12.574;2024-01-15T08:23:59;0.80;99.90
13598;DHT22;38563;54.258;12.574;2024-01-15T08:26:26;0.80;99.90
13598;DHT22;38563;54.258;12.574;2024-01-15T08:28:53;0.80;99.90
13598;DHT22;38563;54.258;12.574;2024-01-15T08:31:19;0.70;99.90
13598;DHT22;38563;54.258;12.574;2024-01-15T08:33:46;0.70;99.90
13598;DHT22;38563;54.258;12.574;2024-01-15T08:36:13;0.70;99.90
13598;DHT22;38563;54.258;12.574;2024-01-15T08:38:40;0.70;99.90
13598;DHT22;38563;54.258;12.574;2024-01-15T08:41:08;0.60;99.90
13598;DHT22;38563;54.258;12.574;2024-01-15T08:43:34;0.60;99.90
13598;DHT22;38563;54.258;12.574;2024-01-15T08:46:02;0.60;99.90
13598;DHT22;38563;54.258;12.574;2024-01-15T08:48:29;0.60;99.90
13598;DHT22;38563;54.258;12.574;2024-01-15T08:50:56;0.60;99.90
13598;DHT22;38563;54.258;12.574;2024-01-15T08:53:22;0.60;99.90
13598;DHT22;38563;54.258;12.574;2024-01-15T08:55:49;0.60;99.90
13598;DHT22;38563;54.258;12.574;2024-01-15T08:58:17;0.50;99.90
13598;DHT22;38563;54.258;12.574;2024-01-15T09:00:44;0.50;99.90
13598;DHT22;38563;54.258;12.574;2024-01-15T09:03:11;0.50;99.90
13598;DHT22;38563;54.258;12.574;2024-01-15T09:05:38;0.50;99.90
13598;DHT22;38563;54.258;12.574;2024-01-15T09:08:06;0.50;99.90
13598;DHT22;38563;54.258;12.574;2024-01-15T09:10:33;0.40;99.90
13598;DHT22;38563;54.258;12.574;2024-01-15T09:12:59;0.40;99.90
13598;DHT22;38563;54.258;12.574;2024-01-15T09:15:27;0.40;99.90
13598;DHT22;38563;54.258;12.574;2024-01-15T09:17:54;0.40;99.90
13598;DHT22;38563;54.258;12.574;2024-01-15T09:20:23;0.40;99.90
13598;DHT22;38563;54.258;12.574;2024-01-15T09:22:51;0.40;99.90
13598;DHT22;38563;54.258;12.574;2024-01-15T09:25:18;0.30;99.90
13598;DHT22;38563;54.258;12.574;2024-01-15T09:27:45;0.40;99.90
13598;DHT22;38563;54.258;12.574;2024-01-15T09:30:12;0.30;99.90
13598;DHT22;38563;54.258;12.574;2024-01-15T09:32:40;0.30;99.90
13598;DHT22;38563;54.258;12.574;2024-01-15T09:35:08;0.30;99.90
13598;DHT22;38563;54.258;12.574;2024-01-15T09:37:35;0.20;99.90
13598;DHT22;38563;54.258;12.574;2024-01-15T09:40:03;0.10;99.90
13598;DHT22;38563;54.258;12.574;2024-01-15T09:42:30;0.00;99.90
13598;DHT22;38563;54.258;12.574;2024-01-15T09:44:57;0.00;99.90
13598;DHT22;38563;54.258;12.574;2024-01-15T09:47:24;0.00;99.90
13598;DHT22;38563;54.258;12.574;2024-01-15T09:49:52;0.00;99.90
13598;DHT22;38563;54.258;12.574;2024-01-15T09:52:19;0.10;99.90
13598;DHT22;38563;54.258;12.574;2024-01-15T09:54:47;0.10;99.90
13598;DHT22;38563;54.258;12.574;2024-01-15T09:57:15;0.00;99.90
13598;DHT22;38563;54.258;12.574;2024-01-15T09:59:42;0.00;99.90
13598;DHT22;38563;54.258;12.574;2024-01-15T10:02:12;0.00;99.90
13598;DHT22;38563;54.258;12.574;2024-01-15T10:04:41;-0.10;99.90
13598;DHT22;38563;54.258;12.574;2024-01-15T10:07:12;-0.10;99.90
13598;DHT22;38563;54.258;12.574;2024-01-15T10:09:41;-0.10;99.90
13598;DHT22;38563;54.258;12.574;2024-01-15T10:12:08;-0.10;99.90
13598;DHT22;38563;54.258;12.574;2024-01-15T10:14:35;-0.10;99.90
13598;DHT22;38563;54.258;12.574;2024-01-15T10:17:12;0.00;99.90
13598;DHT22;38563;54.258;12.574;2024-01-15T10:19:39;-0.10;99.90
13598;DHT22;38563;54.258;12.574;2024-01-15T10:22:07;-0.10;99.90
13598;DHT22;38563;54.258;12.574;2024-01-15T10:24:36;-0.10;99.90
13598;DHT22;38563;54.258;12.574;2024-01-15T10:27:07;-0.10;99.90
13598;DHT22;38563;54.258;12.574;2024-01-15T10:29:34;-0.10;99.90
13598;DHT22;38563;54.258;12.574;2024-01-15T10:32:02;-0.10;99.90
13598;DHT22;38563;54.258;12.574;2024-01-15T10:34:30;-0.10;99.90
13598;DHT22;38563;54.258;12.574;2024-01-15T10:36:57;-0.10;99.90
13598;DHT22;38563;54.258;12.574;2024-01-15T10:39:24;-0.10;99.90
13598;DHT22;38563;54.258;12.574;2024-01-15T10:41:52;0.00;99.90
13598;DHT22;38563;54.258;12.574;2024-01-15T10:44:19;0.00;99.90
13598;DHT22;38563;54.258;12.574;2024-01-15T10:46:46;0.00;99.90
13598;DHT22;38563;54.258;12.574;2024-01-15T10:49:13;0.00;99.90
13598;DHT22;38563;54.258;12.574;2024-01-15T10:51:41;0.00;99.90
13598;DHT22;38563;54.258;12.574;2024-01-15T10:54:09;0.00;99.90
13598;DHT22;38563;54.258;12.574;2024-01-15T10:56:37;-0.10;99.90
13598;DHT22;38563;54.258;12.574;2024-01-15T10:59:06;-0.10;99.90
13598;DHT22;38563;54.258;12.574;2024-01-15T11:01:35;-0.20;99.90
13598;DHT22;38563;54.258;12.574;2024-01-15T11:04:03;-0.10;99.90
13598;DHT22;38563;54.258;12.574;2024-01-15T11:06:41;-0.10;99.90
13598;DHT22;38563;54.258;12.574;2024-01-15T11:09:09;-0.10;99.90
13598;DHT22;38563;54.258;12.574;2024-01-15T11:11:36;-0.10;99.90
13598;DHT22;38563;54.258;12.574;2024-01-15T11:14:07;-0.10;99.90
13598;DHT22;38563;54.258;12.574;2024-01-15T11:16:54;-0.10;99.90
13598;DHT22;38563;54.258;12.574;2024-01-15T11:19:21;-0.10;99.90
13598;DHT22;38563;54.258;12.574;2024-01-15T11:35:19;0.00;99.90
13598;DHT22;38563;54.258;12.574;2024-01-15T11:37:59;0.00;99.90
13598;DHT22;38563;54.258;12.574;2024-01-15T11:40:39;0.10;99.90
13598;DHT22;38563;54.258;12.574;2024-01-15T11:43:08;0.10;99.90
13598;DHT22;38563;54.258;12.574;2024-01-15T11:45:36;0.10;99.90
13598;DHT22;38563;54.258;12.574;2024-01-15T11:59:10;0.10;99.90
13598;DHT22;38563;54.258;12.574;2024-01-15T12:05:25;0.20;99.90
13598;DHT22;38563;54.258;12.574;2024-01-15T12:07:51;0.10;99.90
13598;DHT22;38563;54.258;12.574;2024-01-15T12:10:19;0.10;99.90
13598;DHT22;38563;54.258;12.574;2024-01-15T12:16:28;0.10;99.90
13598;DHT22;38563;54.258;12.574;2024-01-15T12:27:00;-0.10;99.90
13598;DHT22;38563;54.258;12.574;2024-01-15T12:29:27;-0.10;99.90
13598;DHT22;38563;54.258;12.574;2024-01-15T12:31:55;-0.10;99.90
13598;DHT22;38563;54.258;12.574;2024-01-15T12:37:47;-0.10;99.90
13598;DHT22;38563;54.258;12.574;2024-01-15T12:40:20;-0.10;99.90
13598;DHT22;38563;54.258;12.574;2024-01-15T12:43:02;-0.10;99.90
13598;DHT22;38563;54.258;12.574;2024-01-15T12:45:30;-0.10;99.90
13598;DHT22;38563;54.258;12.574;2024-01-15T12:47:58;-0.10;99.90
13598;DHT22;38563;54.258;12.574;2024-01-15T12:50:25;-0.10;99.90
13598;DHT22;38563;54.258;12.574;2024-01-15T12:52:53;-0.10;99.90
13598;DHT22;38563;54.258;12.574;2024-01-15T12:55:19;-0.10;99.90
13598;DHT22;38563;54.258;12.574;2024-01-15T12:57:53;-0.10;99.90
13598;DHT22;38563;54.258;12.574;2024-01-15T13:03:27;-0.10;99.90
13598;DHT22;38563;54.258;12.574;2024-01-15T13:05:54;-0.10;99.90
13598;DHT22;38563;54.258;12.574;2024-01-15T13:08:24;-0.10;99.90
13598;DHT22;38563;54.258;12.574;2024-01-15T13:10:59;-0.10;99.90
13598;DHT22;38563;54.258;12.574;2024-01-15T14:17:52;-0.60;99.90
13598;DHT22;38563;54.258;12.574;2024-01-15T14:20:23;-0.60;99.90
13598;DHT22;38563;54.258;12.574;2024-01-15T14:22:50;-0.60;99.90
13598;DHT22;38563;54.258;12.574;2024-01-15T14:25:20;-0.70;99.90
13598;DHT22;38563;54.258;12.574;2024-01-15T14:27:51;-0.70;99.90
13598;DHT22;38563;54.258;12.574;2024-01-15T15:29:44;-0.80;99.90
13598;DHT22;38563;54.258;12.574;2024-01-15T15:32:18;-0.80;99.90
13598;DHT22;38563;54.258;12.574;2024-01-15T15:34:57;-0.80;99.90
13598;DHT22;38563;54.258;12.574;2024-01-15T15:37:27;-0.80;99.90
13598;DHT22;38563;54.258;12.574;2024-01-15T15:39:59;-0.80;99.90
13598;DHT22;38563;54.258;12.574;2024-01-15T15:42:31;-0.80;99.90
13598;DHT22;38563;54.258;12.574;2024-01-15T15:45:06;-0.90;99.90
13598;DHT22;38563;54.258;12.574;2024-01-15T15:47:35;-0.90;99.90
13598;DHT22;38563;54.258;12.574;2024-01-15T15:50:02;-0.90;99.90
13598;DHT22;38563;54.258;12.574;2024-01-15T15:52:29;-0.90;99.90
13598;DHT22;38563;54.258;12.574;2024-01-15T15:54:56;-0.90;99.90
13598;DHT22;38563;54.258;12.574;2024-01-15T15:57:23;-0.90;99.90
13598;DHT22;38563;54.258;12.574;2024-01-15T15:59:51;-1.00;99.90
13598;DHT22;38563;54.258;12.574;2024-01-15T16:02:20;-1.00;99.90
13598;DHT22;38563;54.258;12.574;2024-01-15T16:04:47;-1.00;99.90
13598;DHT22;38563;54.258;12.574;2024-01-15T16:07:14;-1.00;99.90
13598;DHT22;38563;54.258;12.574;2024-01-15T16:09:40;-1.00;99.90
13598;DHT22;38563;54.258;12.574;2024-01-15T16:12:07;-1.00;99.90
13598;DHT22;38563;54.258;12.574;2024-01-15T16:14:34;-1.00;99.90
13598;DHT22;38563;54.258;12.574;2024-01-15T16:17:01;-1.00;99.90
13598;DHT22;38563;54.258;12.574;2024-01-15T16:19:29;-0.90;99.90
13598;DHT22;38563;54.258;12.574;2024-01-15T16:21:55;-0.90;99.90
13598;DHT22;38563;54.258;12.574;2024-01-15T16:24:22;-0.90;99.90
13598;DHT22;38563;54.258;12.574;2024-01-15T16:26:50;-0.90;99.90
13598;DHT22;38563;54.258;12.574;2024-01-15T16:29:17;-0.90;99.90
13598;DHT22;38563;54.258;12.574;2024-01-15T16:31:44;-0.90;99.90
13598;DHT22;38563;54.258;12.574;2024-01-15T16:34:11;-1.00;99.90
13598;DHT22;38563;54.258;12.574;2024-01-15T16:36:39;-1.10;99.90
13598;DHT22;38563;54.258;12.574;2024-01-15T16:39:06;-1.10;99.90
13598;DHT22;38563;54.258;12.574;2024-01-15T16:41:33;-1.20;99.90
13598;DHT22;38563;54.258;12.574;2024-01-15T16:43:59;-1.20;99.90
13598;DHT22;38563;54.258;12.574;2024-01-15T16:46:26;-1.30;99.90
13598;DHT22;38563;54.258;12.574;2024-01-15T16:48:53;-1.20;99.90
13598;DHT22;38563;54.258;12.574;2024-01-15T16:51:20;-1.30;99.90
13598;DHT22;38563;54.258;12.574;2024-01-15T16:53:48;-1.30;99.90
13598;DHT22;38563;54.258;12.574;2024-01-15T16:56:14;-1.30;99.90
13598;DHT22;38563;54.258;12.574;2024-01-15T16:58:41;-1.30;99.90
13598;DHT22;38563;54.258;12.574;2024-01-15T17:01:08;-1.30;99.90
13598;DHT22;38563;54.258;12.574;2024-01-15T17:03:34;-1.30;99.90
13598;DHT22;38563;54.258;12.574;2024-01-15T17:06:01;-1.30;99.90
13598;DHT22;38563;54.258;12.574;2024-01-15T17:08:28;-1.20;99.90
13598;DHT22;38563;54.258;12.574;2024-01-15T17:10:56;-1.20;99.90
13598;DHT22;38563;54.258;12.574;2024-01-15T17:13:24;-1.20;99.90
13598;DHT22;38563;54.258;12.574;2024-01-15T17:15:51;-1.10;99.90
13598;DHT22;38563;54.258;12.574;2024-01-15T17:18:17;-1.10;99.90
13598;DHT22;38563;54.258;12.574;2024-01-15T17:20:44;-1.10;99.90
13598;DHT22;38563;54.258;12.574;2024-01-15T17:42:07;-1.00;99.90
13598;DHT22;38563;54.258;12.574;2024-01-15T17:44:34;-0.90;99.90
13598;DHT22;38563;54.258;12.574;2024-01-15T17:47:01;-0.90;99.90
13598;DHT22;38563;54.258;12.574;2024-01-15T17:49:27;-1.00;99.90
13598;DHT22;38563;54.258;12.574;2024-01-15T17:51:56;-1.00;99.90
13598;DHT22;38563;54.258;12.574;2024-01-15T17:54:22;-1.00;99.90
13598;DHT22;38563;54.258;12.574;2024-01-15T17:56:49;-1.00;99.90
13598;DHT22;38563;54.258;12.574;2024-01-15T17:59:17;-1.10;99.90
13598;DHT22;38563;54.258;12.574;2024-01-15T18:01:44;-1.10;99.90
13598;DHT22;38563;54.258;12.574;2024-01-15T18:04:12;-1.10;99.90
13598;DHT22;38563;54.258;12.574;2024-01-15T18:06:40;-1.10;99.90
13598;DHT22;38563;54.258;12.574;2024-01-15T18:09:07;-1.10;99.90
13598;DHT22;38563;54.258;12.574;2024-01-15T18:11:34;-1.00;99.90
13598;DHT22;38563;54.258;12.574;2024-01-15T18:14:00;-1.00;99.90
13598;DHT22;38563;54.258;12.574;2024-01-15T18:16:28;-1.00;99.90
13598;DHT22;38563;54.258;12.574;2024-01-15T18:18:55;-1.00;99.90
13598;DHT22;38563;54.258;12.574;2024-01-15T18:21:22;-1.00;99.90
13598;DHT22;38563;54.258;12.574;2024-01-15T18:23:49;-1.00;99.90
13598;DHT22;38563;54.258;12.574;2024-01-15T18:26:16;-1.10;99.90
13598;DHT22;38563;54.258;12.574;2024-01-15T18:28:43;-1.00;99.90
13598;DHT22;38563;54.258;12.574;2024-01-15T18:31:10;-1.10;99.90
13598;DHT22;38563;54.258;12.574;2024-01-15T18:33:38;-1.10;99.90
13598;DHT22;38563;54.258;12.574;2024-01-15T18:36:06;-1.10;99.90
13598;DHT22;38563;54.258;12.574;2024-01-15T18:38:33;-1.10;99.90